createdAt,value
2018-12-21T00:00:56.073Z,2.97
2018-12-21T00:03:24.073Z,3.37
2018-12-21T00:05:52.090Z,3.23
2018-12-21T00:08:20.123Z,2.87
2018-12-21T00:10:48.125Z,3.03
2018-12-21T00:13:16.120Z,3.03
2018-12-21T00:15:44.146Z,3.03
2018-12-21T00:18:12.360Z,5.00
2018-12-21T00:20:40.329Z,3.10
2018-12-21T00:23:08.330Z,3.30
2018-12-21T00:25:36.383Z,3.33
2018-12-21T00:28:04.377Z,3.40
2018-12-21T00:30:31.962Z,3.47
2018-12-21T00:33:05.673Z,5.23
2018-12-21T00:35:39.421Z,3.23
2018-12-21T00:38:13.133Z,3.23
2018-12-21T00:40:46.821Z,3.17
2018-12-21T00:43:16.774Z,3.10
2018-12-21T00:45:46.746Z,3.37
2018-12-21T00:48:14.748Z,3.07
2018-12-21T00:50:42.751Z,3.13
2018-12-21T00:53:10.754Z,3.27
2018-12-21T00:55:38.777Z,3.00
2018-12-21T00:58:06.973Z,3.47
2018-12-21T01:00:35.186Z,4.13
2018-12-21T01:03:03.166Z,3.20
2018-12-21T01:05:31.285Z,3.50
2018-12-21T01:07:59.433Z,3.20
2018-12-21T01:10:27.522Z,3.13
2018-12-21T01:12:55.530Z,3.00
2018-12-21T01:15:23.551Z,4.80
2018-12-21T01:17:51.550Z,3.40
2018-12-21T01:20:19.556Z,3.00
2018-12-21T01:22:47.633Z,3.00
2018-12-21T01:25:15.634Z,3.20
2018-12-21T01:27:43.618Z,3.30
2018-12-21T01:30:11.717Z,3.00
2018-12-21T01:32:39.712Z,3.53
2018-12-21T01:35:07.798Z,2.83
2018-12-21T01:37:35.783Z,4.90
2018-12-21T01:40:05.349Z,2.73
2018-12-21T01:42:33.402Z,2.70
2018-12-21T01:45:01.435Z,3.80
2018-12-21T01:47:29.516Z,3.10
2018-12-21T01:49:57.818Z,3.23
2018-12-21T01:52:25.792Z,4.20
2018-12-21T01:54:53.809Z,3.00
2018-12-21T01:57:21.806Z,3.10
2018-12-21T01:59:49.902Z,2.73
2018-12-21T02:02:17.862Z,2.77
2018-12-21T02:04:45.874Z,3.07
2018-12-21T02:07:13.857Z,3.10
2018-12-21T02:09:41.875Z,2.67
2018-12-21T02:12:09.879Z,3.23
2018-12-21T02:14:37.889Z,4.00
2018-12-21T02:17:05.891Z,2.90
2018-12-21T02:19:33.894Z,3.47
2018-12-21T02:22:01.882Z,3.20
2018-12-21T02:24:29.894Z,3.60
2018-12-21T02:26:57.898Z,3.20
2018-12-21T02:29:25.974Z,4.67
2018-12-21T02:31:53.976Z,2.70
2018-12-21T02:34:22.029Z,3.10
2018-12-21T02:36:50.029Z,3.37
2018-12-21T02:39:18.030Z,2.90
2018-12-21T02:41:46.043Z,3.20
2018-12-21T02:44:14.078Z,3.00
2018-12-21T02:46:42.090Z,2.53
2018-12-21T02:49:10.110Z,3.10
2018-12-21T02:51:38.102Z,4.43
2018-12-21T02:54:06.093Z,2.83
2018-12-21T02:56:34.167Z,2.53
2018-12-21T02:59:02.185Z,2.73
2018-12-21T03:01:30.176Z,2.97
2018-12-21T03:03:58.182Z,2.87
2018-12-21T03:06:26.186Z,4.63
2018-12-21T03:08:54.180Z,2.27
2018-12-21T03:11:22.185Z,2.57
2018-12-21T03:13:50.158Z,3.17
2018-12-21T03:16:18.261Z,2.60
2018-12-21T03:18:46.255Z,2.80
2018-12-21T03:21:14.251Z,2.73
2018-12-21T03:23:42.422Z,2.80
2018-12-21T03:26:10.466Z,2.50
2018-12-21T03:28:38.457Z,3.80
2018-12-21T03:31:06.541Z,2.67
2018-12-21T03:33:34.578Z,2.27
2018-12-21T03:36:02.610Z,2.67
2018-12-21T03:38:30.665Z,2.17
2018-12-21T03:40:58.677Z,3.23
2018-12-21T03:43:26.734Z,3.30
2018-12-21T03:45:54.728Z,2.70
2018-12-21T03:48:22.774Z,3.00
2018-12-21T03:50:50.786Z,3.10
2018-12-21T03:53:18.773Z,3.30
2018-12-21T03:55:46.783Z,4.10
2018-12-21T03:58:14.831Z,3.57
2018-12-21T04:00:42.841Z,3.93
2018-12-21T04:03:10.838Z,2.83
2018-12-21T04:05:38.910Z,4.23
2018-12-21T04:08:06.903Z,3.60
2018-12-21T04:10:34.902Z,3.17
2018-12-21T04:13:02.900Z,3.40
2018-12-21T04:15:30.973Z,3.33
2018-12-21T04:17:59.016Z,3.20
2018-12-21T04:20:27.024Z,4.23
2018-12-21T04:22:56.275Z,3.33
2018-12-21T04:25:24.271Z,3.20
2018-12-21T04:27:52.282Z,3.73
2018-12-21T04:30:20.283Z,3.20
2018-12-21T04:32:48.278Z,3.17
2018-12-21T04:35:16.294Z,2.77
2018-12-21T04:37:44.350Z,2.70
2018-12-21T04:40:12.358Z,2.63
2018-12-21T04:42:40.350Z,4.17
2018-12-21T04:45:08.494Z,3.20
2018-12-21T04:47:36.493Z,2.70
2018-12-21T04:50:06.321Z,3.20
2018-12-21T04:52:42.960Z,4.40
2018-12-21T04:55:04.325Z,3.03
2018-12-21T04:57:32.336Z,3.47
2018-12-21T05:00:00.341Z,3.07
2018-12-21T05:02:28.423Z,3.30
2018-12-21T05:04:56.402Z,3.20
2018-12-21T05:07:24.426Z,3.00
2018-12-21T05:09:52.418Z,3.40
2018-12-21T05:12:20.425Z,3.40
2018-12-21T05:14:48.484Z,3.20
2018-12-21T05:17:16.491Z,3.03
2018-12-21T05:19:44.479Z,4.77
2018-12-21T05:22:12.488Z,3.13
2018-12-21T05:24:40.480Z,3.50
2018-12-21T05:27:08.550Z,3.70
2018-12-21T05:29:36.546Z,3.10
2018-12-21T05:32:04.626Z,3.73
2018-12-21T05:34:32.558Z,3.43
2018-12-21T05:37:00.567Z,3.73
2018-12-21T05:39:28.555Z,3.60
2018-12-21T05:41:56.549Z,3.70
2018-12-21T05:44:24.546Z,3.60
2018-12-21T05:46:52.554Z,4.37
2018-12-21T05:49:20.539Z,3.60
2018-12-21T05:51:48.536Z,3.63
2018-12-21T05:54:16.523Z,3.60
2018-12-21T05:56:44.541Z,5.33
2018-12-21T05:59:12.527Z,3.90
2018-12-21T06:01:40.595Z,3.93
2018-12-21T06:04:08.600Z,4.10
2018-12-21T06:06:36.771Z,4.43
2018-12-21T06:09:06.306Z,3.63
2018-12-21T06:11:34.313Z,4.00
2018-12-21T06:14:02.380Z,4.10
2018-12-21T06:16:30.386Z,5.67
2018-12-21T06:18:58.373Z,5.33
2018-12-21T06:21:26.394Z,5.23
2018-12-21T06:23:54.380Z,4.17
2018-12-21T06:26:22.383Z,4.33
2018-12-21T06:28:50.386Z,4.13
2018-12-21T06:31:18.378Z,4.03
2018-12-21T06:33:47.289Z,5.83
2018-12-21T06:36:15.362Z,4.30
2018-12-21T06:38:43.358Z,4.47
2018-12-21T06:41:11.376Z,4.23
2018-12-21T06:43:39.379Z,3.90
2018-12-21T06:46:14.173Z,4.10
2018-12-21T06:48:37.314Z,4.13
2018-12-21T06:51:05.314Z,3.90
2018-12-21T06:53:33.313Z,5.20
2018-12-21T06:56:01.300Z,3.80
2018-12-21T06:58:29.361Z,3.80
2018-12-21T07:00:57.828Z,4.00
2018-12-21T07:03:25.823Z,4.07
2018-12-21T07:05:53.834Z,4.17
2018-12-21T07:08:21.809Z,3.90
2018-12-21T07:10:49.813Z,6.33
2018-12-21T07:13:17.793Z,4.23
2018-12-21T07:15:45.802Z,3.50
2018-12-21T07:18:13.810Z,3.87
2018-12-21T07:20:41.918Z,4.07
2018-12-21T07:23:09.994Z,4.20
2018-12-21T07:25:38.015Z,4.03
2018-12-21T07:28:06.039Z,3.73
2018-12-21T07:30:34.019Z,4.60
2018-12-21T07:33:02.005Z,3.80
2018-12-21T07:35:30.021Z,3.53
2018-12-21T07:37:58.142Z,4.00
2018-12-21T07:40:26.159Z,4.03
2018-12-21T07:42:54.140Z,3.87
2018-12-21T07:45:22.135Z,3.50
2018-12-21T07:47:50.130Z,4.80
2018-12-21T07:50:18.113Z,3.50
2018-12-21T07:52:46.126Z,3.80
2018-12-21T07:55:14.378Z,4.10
2018-12-21T07:57:42.376Z,3.70
2018-12-21T08:00:10.921Z,2.83
2018-12-21T08:02:38.939Z,2.93
2018-12-21T08:05:07.075Z,3.40
2018-12-21T08:07:35.071Z,4.10
2018-12-21T08:10:06.002Z,3.67
2018-12-21T08:12:34.040Z,2.93
2018-12-21T08:15:02.031Z,3.10
2018-12-21T08:17:30.066Z,3.47
2018-12-21T08:19:58.073Z,3.07
2018-12-21T08:22:26.081Z,3.07
2018-12-21T08:24:54.100Z,4.97
2018-12-21T08:27:22.120Z,3.10
2018-12-21T08:29:50.120Z,3.60
2018-12-21T08:32:18.190Z,3.70
2018-12-21T08:34:46.227Z,3.83
2018-12-21T08:37:14.237Z,4.40
2018-12-21T08:39:42.251Z,5.00
2018-12-21T08:42:10.262Z,4.30
2018-12-21T08:44:38.270Z,5.37
2018-12-21T08:47:06.281Z,3.90
2018-12-21T08:49:34.286Z,4.00
2018-12-21T08:52:02.295Z,3.90
2018-12-21T08:54:30.298Z,3.57
2018-12-21T08:56:58.327Z,3.80
2018-12-21T08:59:26.310Z,3.80
2018-12-21T09:01:54.318Z,4.70
2018-12-21T09:04:22.310Z,3.77
2018-12-21T09:06:50.370Z,2.90
2018-12-21T09:09:18.356Z,2.30
2018-12-21T09:11:46.388Z,2.37
2018-12-21T09:14:14.371Z,2.80
2018-12-21T09:16:42.367Z,3.00
2018-12-21T09:19:10.360Z,2.77
2018-12-21T09:21:38.371Z,3.63
2018-12-21T09:24:06.379Z,2.57
2018-12-21T09:26:34.399Z,2.80
2018-12-21T09:29:02.397Z,2.40
2018-12-21T09:31:30.398Z,1.67
2018-12-21T09:33:58.416Z,1.77
2018-12-21T09:36:26.426Z,2.30
2018-12-21T09:38:54.419Z,2.30
2018-12-21T09:41:22.421Z,1.70
2018-12-21T09:43:50.445Z,1.70
2018-12-21T09:46:18.439Z,1.70
2018-12-21T09:48:46.454Z,1.47
2018-12-21T09:51:14.477Z,1.60
2018-12-21T09:53:42.485Z,1.30
2018-12-21T09:56:10.548Z,1.60
2018-12-21T09:58:38.582Z,2.53
2018-12-21T10:01:06.577Z,1.50
2018-12-21T10:03:34.596Z,1.50
2018-12-21T10:06:02.586Z,1.40
2018-12-21T10:08:30.607Z,1.50
2018-12-21T10:10:58.630Z,1.50
2018-12-21T10:13:26.643Z,1.47
2018-12-21T10:15:54.641Z,2.50
2018-12-21T10:18:22.661Z,1.47
2018-12-21T10:20:50.664Z,3.07
2018-12-21T10:23:18.675Z,1.30
2018-12-21T10:25:46.671Z,1.37
2018-12-21T10:28:14.756Z,2.30
2018-12-21T10:30:42.761Z,1.40
2018-12-21T10:33:10.769Z,1.50
2018-12-21T10:35:38.792Z,2.67
2018-12-21T10:38:06.829Z,3.83
2018-12-21T10:40:34.826Z,5.50
2018-12-21T10:43:02.856Z,1.60
2018-12-21T10:45:30.921Z,1.60
2018-12-21T10:48:00.106Z,1.30
2018-12-21T10:50:28.381Z,2.30
2018-12-21T10:52:56.374Z,2.37
2018-12-21T10:55:24.382Z,1.67
2018-12-21T10:57:52.394Z,1.63
2018-12-21T11:00:20.842Z,1.73
2018-12-21T11:02:48.856Z,1.63
2018-12-21T11:05:16.870Z,2.60
2018-12-21T11:07:44.894Z,1.50
2018-12-21T11:10:12.895Z,2.87
2018-12-21T11:12:40.938Z,2.77
2018-12-21T11:15:09.085Z,1.33
2018-12-21T11:17:37.180Z,1.40
2018-12-21T11:20:06.456Z,1.30
2018-12-21T11:22:34.467Z,1.10
2018-12-21T11:25:04.920Z,1.40
2018-12-21T11:27:32.933Z,1.80
2018-12-21T11:30:00.944Z,1.40
2018-12-21T11:32:29.124Z,1.67
2018-12-21T11:34:57.162Z,2.30
2018-12-21T11:37:25.193Z,1.47
2018-12-21T11:39:53.208Z,1.27
2018-12-21T11:42:21.257Z,1.60
2018-12-21T11:44:49.340Z,1.23
2018-12-21T11:47:17.791Z,1.20
2018-12-21T11:49:45.817Z,5.97
2018-12-21T11:52:13.843Z,1.30
2018-12-21T11:54:44.476Z,1.40
2018-12-21T11:57:11.930Z,1.70
2018-12-21T11:59:44.911Z,2.07
2018-12-21T12:02:10.044Z,1.80
2018-12-21T12:04:38.055Z,1.90
2018-12-21T12:07:06.079Z,1.87
2018-12-21T12:09:34.081Z,1.57
2018-12-21T12:12:02.103Z,2.43
2018-12-21T12:14:30.432Z,2.23
2018-12-21T12:16:58.829Z,5.10
2018-12-21T12:19:27.064Z,2.00
2018-12-21T12:21:55.079Z,1.73
2018-12-21T12:24:23.106Z,1.70
2018-12-21T12:26:51.123Z,2.20
2018-12-21T12:29:19.159Z,2.57
2018-12-21T12:31:47.169Z,1.73
2018-12-21T12:34:15.200Z,1.27
2018-12-21T12:36:43.210Z,2.00
2018-12-21T12:39:11.227Z,1.97
2018-12-21T12:41:39.240Z,1.80
2018-12-21T12:44:07.275Z,1.33
2018-12-21T12:46:35.294Z,1.10
2018-12-21T12:49:03.385Z,3.03
2018-12-21T12:51:31.398Z,1.40
2018-12-21T12:53:59.427Z,1.70
2018-12-21T12:56:27.455Z,1.20
2018-12-21T12:58:55.460Z,1.17
2018-12-21T13:01:23.563Z,1.10
2018-12-21T13:03:51.656Z,1.70
2018-12-21T13:06:19.740Z,1.20
2018-12-21T13:08:47.767Z,1.20
2018-12-21T13:11:15.770Z,1.43
2018-12-21T13:13:43.795Z,1.30
2018-12-21T13:16:11.809Z,1.40
2018-12-21T13:18:39.827Z,1.40
2018-12-21T13:21:07.934Z,1.70
2018-12-21T13:23:35.950Z,1.20
2018-12-21T13:26:03.957Z,1.90
2018-12-21T13:28:31.974Z,1.43
2018-12-21T13:31:00.006Z,1.40
2018-12-21T13:33:28.035Z,1.50
2018-12-21T13:35:56.052Z,1.37
2018-12-21T13:38:24.062Z,1.30
2018-12-21T13:40:52.095Z,1.50
2018-12-21T13:43:20.090Z,1.50
2018-12-21T13:45:48.274Z,2.40
2018-12-21T13:48:16.348Z,1.30
2018-12-21T13:50:44.392Z,1.27
2018-12-21T13:53:12.390Z,1.47
2018-12-21T13:55:40.440Z,1.30
2018-12-21T13:58:08.454Z,1.23
2018-12-21T14:00:36.487Z,1.67
2018-12-21T14:03:04.511Z,2.90
2018-12-21T14:05:32.523Z,1.70
2018-12-21T14:08:00.543Z,2.20
2018-12-21T14:10:28.544Z,1.60
2018-12-21T14:12:56.553Z,2.10
2018-12-21T14:15:24.572Z,1.30
2018-12-21T14:17:52.582Z,1.60
2018-12-21T14:20:20.603Z,1.30
2018-12-21T14:22:48.634Z,2.30
2018-12-21T14:25:16.640Z,2.00
2018-12-21T14:27:44.656Z,2.20
2018-12-21T14:30:12.684Z,2.00
2018-12-21T14:32:40.696Z,2.00
2018-12-21T14:35:08.783Z,2.50
2018-12-21T14:37:36.875Z,1.60
2018-12-21T14:40:05.475Z,2.07
2018-12-21T14:42:33.517Z,1.63
2018-12-21T14:45:01.527Z,1.70
2018-12-21T14:47:29.626Z,1.70
2018-12-21T14:49:57.643Z,1.90
2018-12-21T14:52:25.657Z,1.50
2018-12-21T14:54:53.664Z,1.63
2018-12-21T14:57:21.694Z,1.90
2018-12-21T14:59:49.701Z,2.47
2018-12-21T15:02:17.722Z,1.87
2018-12-21T15:04:45.835Z,2.40
2018-12-21T15:07:13.922Z,1.70
2018-12-21T15:09:41.936Z,1.87
2018-12-21T15:12:09.985Z,1.67
2018-12-21T15:14:37.987Z,1.53
2018-12-21T15:17:06.016Z,2.53
2018-12-21T15:19:34.020Z,1.90
2018-12-21T15:22:02.063Z,2.20
2018-12-21T15:24:30.123Z,1.80
2018-12-21T15:26:58.159Z,1.73
2018-12-21T15:29:26.170Z,1.93
2018-12-21T15:31:54.194Z,1.77
2018-12-21T15:34:22.207Z,2.17
2018-12-21T15:36:50.242Z,3.17
2018-12-21T15:39:18.249Z,1.60
2018-12-21T15:41:46.272Z,2.10
2018-12-21T15:44:14.286Z,2.00
2018-12-21T15:46:42.315Z,2.10
2018-12-21T15:49:10.331Z,1.70
2018-12-21T15:51:38.359Z,1.90
2018-12-21T15:54:06.371Z,3.53
2018-12-21T15:56:34.410Z,1.77
2018-12-21T15:59:02.423Z,1.70
2018-12-21T16:01:36.760Z,1.90
2018-12-21T16:04:00.412Z,1.73
2018-12-21T16:06:28.442Z,2.47
2018-12-21T16:08:56.454Z,1.80
2018-12-21T16:11:24.509Z,1.70
2018-12-21T16:13:52.509Z,3.00
2018-12-21T16:16:20.523Z,2.00
2018-12-21T16:18:48.556Z,1.70
2018-12-21T16:21:16.568Z,1.83
2018-12-21T16:23:44.591Z,1.67
2018-12-21T16:26:12.601Z,1.67
2018-12-21T16:28:42.114Z,1.70
2018-12-21T16:31:10.307Z,3.20
2018-12-21T16:33:38.340Z,1.40
2018-12-21T16:36:06.347Z,1.70
2018-12-21T16:38:34.387Z,1.50
2018-12-21T16:41:02.395Z,1.70
2018-12-21T16:43:30.438Z,1.60
2018-12-21T16:45:58.462Z,1.40
2018-12-21T16:48:26.490Z,1.50
2018-12-21T16:50:54.493Z,2.60
2018-12-21T16:53:22.538Z,1.50
2018-12-21T16:55:50.560Z,1.53
2018-12-21T16:58:18.591Z,1.47
2018-12-21T17:00:46.591Z,1.37
2018-12-21T17:03:15.698Z,1.60
2018-12-21T17:05:44.107Z,1.57
2018-12-21T17:08:12.133Z,2.67
2018-12-21T17:10:40.157Z,1.40
2018-12-21T17:13:08.165Z,1.50
2018-12-21T17:15:36.164Z,1.50
2018-12-21T17:18:04.748Z,1.53
2018-12-21T17:20:32.756Z,1.70
2018-12-21T17:23:00.884Z,1.57
2018-12-21T17:25:29.132Z,1.60
2018-12-21T17:27:57.158Z,2.00
2018-12-21T17:30:25.224Z,1.30
2018-12-21T17:32:53.276Z,1.40
2018-12-21T17:35:21.287Z,1.37
2018-12-21T17:37:49.306Z,1.40
2018-12-21T17:40:17.396Z,1.50
2018-12-21T17:42:45.488Z,1.60
2018-12-21T17:45:13.493Z,2.77
2018-12-21T17:47:41.533Z,1.90
2018-12-21T17:50:09.558Z,1.63
2018-12-21T17:52:37.578Z,1.53
2018-12-21T17:55:06.454Z,1.50
2018-12-21T17:57:34.486Z,1.80
2018-12-21T18:00:04.459Z,1.50
2018-12-21T18:02:32.494Z,1.70
2018-12-21T18:05:00.627Z,1.73
2018-12-21T18:07:28.657Z,1.97
2018-12-21T18:09:56.694Z,2.33
2018-12-21T18:12:24.697Z,1.60
2018-12-21T18:14:52.740Z,1.60
2018-12-21T18:17:20.780Z,1.67
2018-12-21T18:19:48.787Z,1.80
2018-12-21T18:22:16.802Z,2.93
2018-12-21T18:24:44.854Z,1.60
2018-12-21T18:27:12.851Z,1.70
2018-12-21T18:29:40.965Z,1.90
2018-12-21T18:32:09.709Z,1.77
2018-12-21T18:34:37.748Z,1.77
2018-12-21T18:37:05.755Z,1.70
2018-12-21T18:39:33.777Z,1.70
2018-12-21T18:42:01.892Z,1.70
2018-12-21T18:44:29.934Z,1.80
2018-12-21T18:46:57.954Z,2.73
2018-12-21T18:49:25.963Z,2.27
2018-12-21T18:51:53.996Z,1.93
2018-12-21T18:54:22.018Z,2.13
2018-12-21T18:56:51.872Z,2.10
2018-12-21T18:59:19.903Z,2.17
2018-12-21T19:01:47.903Z,1.60
2018-12-21T19:04:15.988Z,1.70
2018-12-21T19:06:44.030Z,1.77
2018-12-21T19:09:12.061Z,1.70
2018-12-21T19:11:40.074Z,1.90
2018-12-21T19:14:08.200Z,1.93
2018-12-21T19:16:36.217Z,1.93
2018-12-21T19:19:04.254Z,1.93
2018-12-21T19:21:32.261Z,1.83
2018-12-21T19:24:00.316Z,3.13
2018-12-21T19:26:28.338Z,1.87
2018-12-21T19:28:56.442Z,2.40
2018-12-21T19:31:24.625Z,2.50
2018-12-21T19:33:52.663Z,2.27
2018-12-21T19:36:20.679Z,2.83
2018-12-21T19:38:48.712Z,2.13
2018-12-21T19:41:16.732Z,1.70
2018-12-21T19:43:44.751Z,2.37
2018-12-21T19:46:12.776Z,1.80
2018-12-21T19:48:40.820Z,2.10
2018-12-21T19:51:08.855Z,2.30
2018-12-21T19:53:36.873Z,1.80
2018-12-21T19:56:08.885Z,1.60
2018-12-21T19:58:36.916Z,1.93
2018-12-21T20:01:04.950Z,2.93
2018-12-21T20:03:33.026Z,1.80
2018-12-21T20:06:01.025Z,1.70
2018-12-21T20:08:29.047Z,1.80
2018-12-21T20:10:57.080Z,1.90
2018-12-21T20:13:25.112Z,2.10
2018-12-21T20:15:53.262Z,1.93
2018-12-21T20:18:21.313Z,1.73
2018-12-21T20:20:49.324Z,1.83
2018-12-21T20:23:17.368Z,1.40
2018-12-21T20:25:45.393Z,1.53
2018-12-21T20:28:13.429Z,1.47
2018-12-21T20:30:41.455Z,1.40
2018-12-21T20:33:09.480Z,1.70
2018-12-21T20:35:37.502Z,1.57
2018-12-21T20:38:05.529Z,2.97
2018-12-21T20:40:33.574Z,1.70
2018-12-21T20:43:01.589Z,1.60
2018-12-21T20:45:29.920Z,1.87
2018-12-21T20:47:57.947Z,1.50
2018-12-21T20:50:25.961Z,1.80
2018-12-21T20:52:53.984Z,1.87
2018-12-21T20:55:22.016Z,2.03
2018-12-21T20:57:50.193Z,1.50
2018-12-21T21:00:18.201Z,1.73
2018-12-21T21:02:46.333Z,1.70
2018-12-21T21:05:14.325Z,1.57
2018-12-21T21:07:42.365Z,1.83
2018-12-21T21:10:11.573Z,1.60
2018-12-21T21:12:39.739Z,1.60
2018-12-21T21:15:10.891Z,4.13
2018-12-21T21:17:38.992Z,1.87
2018-12-21T21:20:12.202Z,1.47
2018-12-21T21:22:40.331Z,1.40
2018-12-21T21:25:08.436Z,1.43
2018-12-21T21:27:36.414Z,1.50
2018-12-21T21:30:10.862Z,1.70
2018-12-21T21:32:38.867Z,2.60
2018-12-21T21:35:07.267Z,1.87
2018-12-21T21:37:35.345Z,1.80
2018-12-21T21:40:10.964Z,1.67
2018-12-21T21:42:38.976Z,1.60
2018-12-21T21:45:08.943Z,1.57
2018-12-21T21:47:36.943Z,1.40
2018-12-21T21:50:08.418Z,1.60
2018-12-21T21:52:36.517Z,1.57
2018-12-21T21:55:04.674Z,1.80
2018-12-21T21:57:39.293Z,2.53
2018-12-21T22:00:02.706Z,1.77
2018-12-21T22:02:30.781Z,2.07
2018-12-21T22:04:58.798Z,2.00
2018-12-21T22:07:26.820Z,1.60
2018-12-21T22:09:55.122Z,2.00
2018-12-21T22:12:23.155Z,1.87
2018-12-21T22:14:51.170Z,3.10
2018-12-21T22:17:19.200Z,1.90
2018-12-21T22:19:47.217Z,1.90
2018-12-21T22:22:15.230Z,1.90
2018-12-21T22:24:43.255Z,1.93
2018-12-21T22:27:11.320Z,1.60
2018-12-21T22:29:39.349Z,1.73
2018-12-21T22:32:07.466Z,1.60
2018-12-21T22:34:35.513Z,2.10
2018-12-21T22:37:03.522Z,1.80
2018-12-21T22:39:31.574Z,2.43
2018-12-21T22:41:59.661Z,1.50
2018-12-21T22:44:27.807Z,1.60
2018-12-21T22:46:55.807Z,1.63
2018-12-21T22:49:23.837Z,1.70
2018-12-21T22:51:52.748Z,2.93
2018-12-21T22:54:20.761Z,1.80
2018-12-21T22:56:48.807Z,2.10
2018-12-21T22:59:16.791Z,1.73
2018-12-21T23:01:44.824Z,1.80
2018-12-21T23:04:12.826Z,2.10
2018-12-21T23:06:40.940Z,1.60
2018-12-21T23:09:08.942Z,1.87
2018-12-21T23:11:36.952Z,1.83
2018-12-21T23:14:05.018Z,1.70
2018-12-21T23:16:33.025Z,2.57
2018-12-21T23:19:01.031Z,1.80
2018-12-21T23:21:29.091Z,1.60
2018-12-21T23:23:57.097Z,2.10
2018-12-21T23:26:25.184Z,1.80
2018-12-21T23:28:53.181Z,2.67
2018-12-21T23:31:21.201Z,1.90
2018-12-21T23:33:49.206Z,2.17
2018-12-21T23:36:17.201Z,1.60
2018-12-21T23:38:45.213Z,1.73
2018-12-21T23:41:13.211Z,1.60
2018-12-21T23:43:43.378Z,1.50
2018-12-21T23:46:11.189Z,1.80
2018-12-21T23:48:39.253Z,1.60
2018-12-21T23:51:07.285Z,1.80
2018-12-21T23:53:35.371Z,3.60
2018-12-21T23:56:11.793Z,1.70
2018-12-21T23:58:33.447Z,1.73
